^^
Saratoga-Weather Station Historical Data
Daily Summary for February 6, 2020 Units:  Both    English   Metric
Daily Weekly Monthly Yearly Custom
  High: Low: Average:
Temperature: 55.9 °F /  13.3 °C 51.6 °F /  10.9 °C 53.8 °F /  12.1 °C
Dew Point: 48.4 °F /  9.1 °C 47.1 °F /  8.4 °C 47.8 °F /  8.8 °C
Humidity: 85% 75% 80%
Wind Speed: 2mph /  3.2km/h - 0.2mph /  0.3km/h
Wind Gust: 2mph /  3.2km/h - -
Wind- - WSW
Pressure: 30.1 in /  1019.6 hPa 30.1 in /  1019.3 hPa -
Precipitation: 0 in /  0.0 mm    
Historical Graphs
 
 
Tabular Data for February 6, 2020
Time Temperature Dew Point Pressure Wind Wind Speed Wind Gust Humidity Rainfall Rate (Hourly) solar
00:03 55.9 °F /  13.3 °C 48.2 °F /  9 °C 30.1in /  1019.3hPa West 0.9mph /  1.4km/h 1mph /  1.6km/h 75% 0in /  0.0mm 0 W/m2
00:08 55.6 °F /  13.1 °C 48.2 °F /  9 °C 30.1in /  1019.3hPa Calm     76% 0in /  0.0mm 0 W/m2
00:13 55.2 °F /  12.9 °C 48.2 °F /  9 °C 30.1in /  1019.3hPa West 0.9mph /  1.4km/h 1mph /  1.6km/h 77% 0in /  0.0mm 0 W/m2
00:18 55 °F /  12.8 °C 48.4 °F /  9.1 °C 30.1in /  1019.3hPa Calm   2mph /  3.2km/h 78% 0in /  0.0mm 0 W/m2
00:23 55 °F /  12.8 °C 48.4 °F /  9.1 °C 30.1in /  1019.6hPa WSW 2mph /  3.2km/h 2mph /  3.2km/h 78% 0in /  0.0mm 0 W/m2
00:28 55 °F /  12.8 °C 48.4 °F /  9.1 °C 30.1in /  1019.3hPa Calm   2mph /  3.2km/h 78% 0in /  0.0mm 0 W/m2
00:33 55 °F /  12.8 °C 48.4 °F /  9.1 °C 30.1in /  1019.6hPa Calm     78% 0in /  0.0mm 0 W/m2
00:38 55 °F /  12.8 °C 48.4 °F /  9.1 °C 30.1in /  1019.6hPa Calm   2mph /  3.2km/h 78% 0in /  0.0mm 0 W/m2
00:43 54.9 °F /  12.7 °C 48.2 °F /  9 °C 30.1in /  1019.6hPa Calm     78% 0in /  0.0mm 0 W/m2
00:48 54.9 °F /  12.7 °C 48.2 °F /  9 °C 30.1in /  1019.6hPa Calm     78% 0in /  0.0mm 0 W/m2
00:53 54.7 °F /  12.6 °C 48.4 °F /  9.1 °C 30.1in /  1019.6hPa Calm     79% 0in /  0.0mm 0 W/m2
00:58 54.3 °F /  12.4 °C 48 °F /  8.9 °C 30.1in /  1019.6hPa Calm     79% 0in /  0.0mm 0 W/m2
01:03 54.1 °F /  12.3 °C 47.8 °F /  8.8 °C 30.1in /  1019.6hPa Calm   1mph /  1.6km/h 79% 0in /  0.0mm 0 W/m2
01:08 53.8 °F /  12.1 °C 47.8 °F /  8.8 °C 30.1in /  1019.6hPa WSW 0.9mph /  1.4km/h 1mph /  1.6km/h 80% 0in /  0.0mm 0 W/m2
01:13 53.8 °F /  12.1 °C 48 °F /  8.9 °C 30.1in /  1019.6hPa WSW 0.9mph /  1.4km/h 1mph /  1.6km/h 81% 0in /  0.0mm 0 W/m2
01:18 53.4 °F /  11.9 °C 47.7 °F /  8.7 °C 30.1in /  1019.6hPa Calm     81% 0in /  0.0mm 0 W/m2
01:23 53.4 °F /  11.9 °C 47.7 °F /  8.7 °C 30.1in /  1019.6hPa Calm     81% 0in /  0.0mm 0 W/m2
01:28 53.2 °F /  11.8 °C 47.5 °F /  8.6 °C 30.1in /  1019.6hPa Calm     81% 0in /  0.0mm 0 W/m2
01:33 53.1 °F /  11.7 °C 47.7 °F /  8.7 °C 30.1in /  1019.3hPa Calm     82% 0in /  0.0mm 0 W/m2
01:38 52.9 °F /  11.6 °C 47.5 °F /  8.6 °C 30.1in /  1019.3hPa Calm     82% 0in /  0.0mm 0 W/m2
01:43 52.5 °F /  11.4 °C 47.5 °F /  8.6 °C 30.1in /  1019.3hPa Calm     83% 0in /  0.0mm 0 W/m2
01:48 52.3 °F /  11.3 °C 47.3 °F /  8.5 °C 30.1in /  1019.3hPa Calm   2mph /  3.2km/h 83% 0in /  0.0mm 0 W/m2
01:54 52.3 °F /  11.3 °C 47.7 °F /  8.7 °C 30.1in /  1019.3hPa Calm   1mph /  1.6km/h 84% 0in /  0.0mm 0 W/m2
01:59 52.2 °F /  11.2 °C 47.5 °F /  8.6 °C 30.1in /  1019.3hPa Calm     84% 0in /  0.0mm 0 W/m2
02:04 52 °F /  11.1 °C 47.3 °F /  8.5 °C 30.1in /  1019.3hPa Calm   1mph /  1.6km/h 84% 0in /  0.0mm 0 W/m2
02:09 51.8 °F /  11 °C 47.1 °F /  8.4 °C 30.1in /  1019.3hPa Calm     84% 0in /  0.0mm 0 W/m2
02:14 51.6 °F /  10.9 °C 47.3 °F /  8.5 °C 30.1in /  1019.6hPa Calm     85% 0in /  0.0mm 0 W/m2
Juneau County Weather
Compliments of Weather Underground - 2 mb